Time,TemperatureF,DewpointF,PressureIn,WindDirection,WindDirectionDegrees,WindSpeedMPH,WindSpeedGustMPH,Humidity,HourlyPrecipIn,Conditions,Clouds,dailyrainin,SolarRadiationWatts/m^2,SoftwareType,DateUTC
2013-06-23 00:30:00,47.0,30.0,-100.00,NNE,19,0.0,0.0,52,-99.99,,,-99.99,0.000000,,2013-06-23 07:30:00,
2013-06-23 00:34:00,47.0,30.0,-100.00,NNE,19,0.0,0.0,51,-99.99,,,-99.99,0.000000,,2013-06-23 07:34:00,
2013-06-23 00:43:00,47.0,30.0,-100.00,NNE,19,0.0,0.0,51,-99.99,,,-99.99,0.000000,,2013-06-23 07:43:00,
2013-06-23 01:22:00,47.0,30.0,-100.00,NNE,19,0.0,0.0,52,-99.99,,,-99.99,0.000000,,2013-06-23 08:22:00,
2013-06-23 01:30:00,47.0,34.0,-100.00,NNE,32,0.0,1.0,60,-99.99,,,-99.99,0.000000,,2013-06-23 08:30:00,
2013-06-23 02:02:00,47.0,34.0,-100.00,NNE,32,0.0,1.0,60,-99.99,,,-99.99,0.000000,,2013-06-23 09:02:00,
2013-06-23 02:12:00,47.0,34.0,-100.00,NNE,32,0.0,1.0,60,-99.99,,,-99.99,0.000000,,2013-06-23 09:12:00,
2013-06-23 02:22:00,47.0,34.0,-100.00,NNE,32,0.0,1.0,60,-99.99,,,-99.99,0.000000,,2013-06-23 09:22:00,
2013-06-23 03:02:00,46.0,34.0,-100.00,NNE,26,0.0,1.0,63,-99.99,,,-99.99,0.000000,,2013-06-23 10:02:00,
2013-06-23 03:22:00,46.0,35.0,-100.00,NE,34,0.0,1.0,64,-99.99,,,-99.99,0.000000,,2013-06-23 10:22:00,
2013-06-23 03:34:00,46.0,35.0,-100.00,NNE,33,0.0,1.0,65,-99.99,,,-99.99,0.000000,,2013-06-23 10:34:00,
2013-06-23 03:43:00,46.0,35.0,-100.00,NE,44,0.0,1.0,66,-99.99,,,-99.99,0.000000,,2013-06-23 10:43:00,
2013-06-23 03:52:00,46.0,36.0,-100.00,NNE,22,0.0,1.0,67,-99.99,,,-99.99,0.000000,,2013-06-23 10:52:00,
2013-06-23 04:01:00,46.0,36.0,-100.00,NNE,31,0.0,1.0,67,-99.99,,,-99.99,0.000000,,2013-06-23 11:01:00,
2013-06-23 04:11:00,46.0,35.0,-100.00,NNE,26,0.0,1.0,66,-99.99,,,-99.99,0.000000,,2013-06-23 11:11:00,
2013-06-23 04:22:00,46.0,35.0,-100.00,North,8,0.0,1.0,66,-99.99,,,-99.99,0.000000,,2013-06-23 11:22:00,
2013-06-23 04:33:00,46.0,35.0,-100.00,NNE,17,0.0,0.0,65,-99.99,,,-99.99,0.000000,,2013-06-23 11:33:00,
2013-06-23 04:43:00,46.0,35.0,-100.00,NNE,30,0.0,0.0,65,-99.99,,,-99.99,0.000000,,2013-06-23 11:43:00,
2013-06-23 04:53:00,46.0,35.0,-100.00,NNE,30,0.0,0.0,65,-99.99,,,-99.99,0.000000,,2013-06-23 11:53:00,
2013-06-23 05:01:00,46.0,34.0,-100.00,NNE,24,0.0,0.0,64,-99.99,,,-99.99,0.000000,,2013-06-23 12:01:00,
2013-06-23 05:11:00,46.0,34.0,-100.00,NNE,28,0.0,1.0,62,-99.99,,,-99.99,0.000000,,2013-06-23 12:11:00,
2013-06-23 05:22:00,46.0,33.0,-100.00,NE,34,0.0,1.0,61,-99.99,,,-99.99,0.000000,,2013-06-23 12:22:00,
2013-06-23 05:33:00,46.0,32.0,-100.00,NE,35,0.0,1.0,59,-99.99,,,-99.99,0.000000,,2013-06-23 12:33:00,
2013-06-23 05:42:00,46.0,32.0,-100.00,NE,35,0.0,1.0,59,-99.99,,,-99.99,0.000000,,2013-06-23 12:42:00,
2013-06-23 05:53:00,46.0,32.0,-100.00,NNE,28,0.0,1.0,58,-99.99,,,-99.99,0.000000,,2013-06-23 12:53:00,
2013-06-23 06:01:00,45.0,31.0,-100.00,NE,36,0.0,1.0,58,-99.99,,,-99.99,0.000000,,2013-06-23 13:01:00,
2013-06-23 06:11:00,45.0,31.0,-100.00,NNE,24,0.0,1.0,58,-99.99,,,-99.99,0.000000,,2013-06-23 13:11:00,
2013-06-23 06:23:00,45.0,31.0,-100.00,NNE,24,0.0,1.0,58,-99.99,,,-99.99,0.000000,,2013-06-23 13:23:00,
2013-06-23 06:33:00,45.0,31.0,-100.00,NNE,27,0.0,1.0,57,-99.99,,,-99.99,0.000000,,2013-06-23 13:33:00,
2013-06-23 06:43:00,45.0,31.0,-100.00,NNE,27,0.0,1.0,57,-99.99,,,-99.99,0.000000,,2013-06-23 13:43:00,
2013-06-23 07:44:00,46.0,33.0,-100.00,NE,48,1.0,1.0,60,-99.99,,,-99.99,60.000000,,2013-06-23 14:44:00,
2013-06-23 07:52:00,46.0,33.0,-100.00,NE,48,1.0,1.0,60,-99.99,,,-99.99,60.000000,,2013-06-23 14:52:00,
2013-06-23 09:22:00,60.0,39.0,-100.00,ENE,72,0.0,1.0,45,-99.99,,,-99.99,620.000000,,2013-06-23 16:22:00,
2013-06-23 09:36:00,60.0,39.0,-100.00,ENE,72,0.0,1.0,45,-99.99,,,-99.99,620.000000,,2013-06-23 16:36:00,
2013-06-23 09:42:00,60.0,39.0,-100.00,ENE,72,0.0,1.0,45,-99.99,,,-99.99,620.000000,,2013-06-23 16:42:00,
2013-06-23 10:22:00,67.0,36.0,-100.00,SW,234,1.0,2.0,32,-99.99,,,-99.99,820.000000,,2013-06-23 17:22:00,
2013-06-23 10:33:00,67.0,36.0,-100.00,SW,234,1.0,2.0,32,-99.99,,,-99.99,820.000000,,2013-06-23 17:33:00,
2013-06-23 10:43:00,66.0,37.0,-100.00,SSE,150,1.0,3.0,34,-99.99,,,-99.99,850.000000,,2013-06-23 17:43:00,
2013-06-23 10:52:00,66.0,34.0,-100.00,South,176,1.0,3.0,31,-99.99,,,-99.99,880.000000,,2013-06-23 17:52:00,
2013-06-23 11:01:00,66.0,35.0,-100.00,SSE,150,1.0,3.0,31,-99.99,,,-99.99,910.000000,,2013-06-23 18:01:00,
2013-06-23 11:11:00,67.0,34.0,-100.00,South,183,1.0,2.0,29,-99.99,,,-99.99,920.000000,,2013-06-23 18:11:00,
2013-06-23 11:22:00,68.0,38.0,-100.00,SSW,206,1.0,3.0,34,-99.99,,,-99.99,960.000000,,2013-06-23 18:22:00,
2013-06-23 11:34:00,67.0,37.0,-100.00,SW,215,1.0,3.0,33,-99.99,,,-99.99,980.000000,,2013-06-23 18:34:00,
2013-06-23 11:42:00,67.0,36.0,-100.00,SSE,156,1.0,3.0,32,-99.99,,,-99.99,1000.000000,,2013-06-23 18:42:00,
2013-06-23 11:53:00,68.0,38.0,-100.00,SSW,194,1.0,3.0,34,-99.99,,,-99.99,1010.000000,,2013-06-23 18:53:00,
2013-06-23 12:01:00,68.0,40.0,-100.00,SSW,208,1.0,3.0,36,-99.99,,,-99.99,1030.000000,,2013-06-23 19:01:00,
2013-06-23 12:11:00,68.0,38.0,-100.00,South,178,1.0,3.0,34,-99.99,,,-99.99,1040.000000,,2013-06-23 19:11:00,
2013-06-23 12:21:00,68.0,38.0,-100.00,South,178,1.0,3.0,34,-99.99,,,-99.99,1040.000000,,2013-06-23 19:21:00,
2013-06-23 12:32:00,68.0,36.0,-100.00,SSE,168,1.0,2.0,31,-99.99,,,-99.99,1050.000000,,2013-06-23 19:32:00,
2013-06-23 12:43:00,67.0,38.0,-100.00,South,171,1.0,3.0,34,-99.99,,,-99.99,1060.000000,,2013-06-23 19:43:00,
2013-06-23 12:53:00,68.0,40.0,-100.00,SSE,151,1.0,4.0,36,-99.99,,,-99.99,1070.000000,,2013-06-23 19:53:00,
2013-06-23 13:01:00,66.0,41.0,-100.00,SSE,153,1.0,3.0,39,-99.99,,,-99.99,1070.000000,,2013-06-23 20:01:00,
2013-06-23 13:11:00,67.0,41.0,-100.00,South,186,1.0,3.0,39,-99.99,,,-99.99,1070.000000,,2013-06-23 20:11:00,
2013-06-23 13:23:00,67.0,41.0,-100.00,SSE,166,1.0,3.0,38,-99.99,,,-99.99,1060.000000,,2013-06-23 20:23:00,
2013-06-23 13:33:00,67.0,41.0,-100.00,SSE,166,1.0,3.0,38,-99.99,,,-99.99,1060.000000,,2013-06-23 20:33:00,
2013-06-23 13:42:00,67.0,40.0,-100.00,South,177,1.0,3.0,38,-99.99,,,-99.99,1040.000000,,2013-06-23 20:42:00,
2013-06-23 13:52:00,67.0,40.0,-100.00,SE,143,1.0,3.0,38,-99.99,,,-99.99,1020.000000,,2013-06-23 20:52:00,
2013-06-23 14:01:00,67.0,40.0,-100.00,SSE,148,1.0,3.0,37,-99.99,,,-99.99,1050.000000,,2013-06-23 21:01:00,
2013-06-23 14:33:00,67.0,39.0,-100.00,SSW,193,1.0,3.0,36,-99.99,,,-99.99,930.000000,,2013-06-23 21:33:00,
2013-06-23 14:44:00,68.0,38.0,-100.00,SSE,164,1.0,3.0,33,-99.99,,,-99.99,970.000000,,2013-06-23 21:44:00,
2013-06-23 14:52:00,68.0,37.0,-100.00,South,173,1.0,2.0,32,-99.99,,,-99.99,800.000000,,2013-06-23 21:52:00,
2013-06-23 15:01:00,68.0,37.0,-100.00,South,173,1.0,2.0,32,-99.99,,,-99.99,800.000000,,2013-06-23 22:01:00,
2013-06-23 15:11:00,67.0,38.0,-100.00,SSE,160,1.0,3.0,34,-99.99,,,-99.99,1010.000000,,2013-06-23 22:11:00,
2013-06-23 15:32:00,68.0,39.0,-100.00,SSW,196,1.0,2.0,34,-99.99,,,-99.99,920.000000,,2013-06-23 22:32:00,
2013-06-23 15:53:00,67.0,38.0,-100.00,SW,233,1.0,2.0,35,-99.99,,,-99.99,300.000000,,2013-06-23 22:53:00,
2013-06-23 16:01:00,67.0,38.0,-100.00,SSE,166,1.0,2.0,34,-99.99,,,-99.99,60.000000,,2013-06-23 23:01:00,
2013-06-23 16:11:00,67.0,38.0,-100.00,South,175,1.0,4.0,34,-99.99,,,-99.99,60.000000,,2013-06-23 23:11:00,
2013-06-23 16:52:00,66.0,39.0,-100.00,WSW,246,1.0,3.0,37,-99.99,,,-99.99,150.000000,,2013-06-23 23:52:00,
2013-06-23 17:01:00,65.0,39.0,-100.00,WSW,241,1.0,3.0,38,-99.99,,,-99.99,130.000000,,2013-06-24 00:01:00,
2013-06-23 17:11:00,65.0,40.0,-100.00,SSE,164,1.0,2.0,40,-99.99,,,-99.99,120.000000,,2013-06-24 00:11:00,
2013-06-23 17:22:00,65.0,40.0,-100.00,SSE,164,1.0,2.0,40,-99.99,,,-99.99,120.000000,,2013-06-24 00:22:00,
2013-06-23 17:30:00,63.0,47.0,-100.00,SW,216,1.0,1.0,56,-99.99,,,-99.99,140.000000,,2013-06-24 00:30:00,
2013-06-23 17:33:00,64.0,41.0,-100.00,SE,135,1.0,2.0,42,-99.99,,,-99.99,180.000000,,2013-06-24 00:33:00,
2013-06-23 17:52:00,63.0,46.0,-100.00,SSW,213,1.0,2.0,55,-99.99,,,-99.99,120.000000,,2013-06-24 00:52:00,
2013-06-23 18:01:00,63.0,46.0,-100.00,SSW,213,1.0,2.0,55,-99.99,,,-99.99,120.000000,,2013-06-24 01:01:00,
2013-06-23 18:11:00,63.0,47.0,-100.00,SW,216,1.0,1.0,56,-99.99,,,-99.99,140.000000,,2013-06-24 01:11:00,
2013-06-23 18:21:00,63.0,47.0,-100.00,SW,216,1.0,1.0,56,-99.99,,,-99.99,140.000000,,2013-06-24 01:21:00,
2013-06-23 18:52:00,61.0,48.0,-100.00,SE,143,1.0,1.0,63,-99.99,,,-99.99,60.000000,,2013-06-24 01:52:00,
2013-06-23 19:01:00,60.0,48.0,-100.00,ESE,118,0.0,1.0,66,-99.99,,,-99.99,40.000000,,2013-06-24 02:01:00,
2013-06-23 19:11:00,59.0,48.0,-100.00,SE,139,0.0,1.0,67,-99.99,,,-99.99,40.000000,,2013-06-24 02:11:00,
2013-06-23 19:21:00,59.0,48.0,-100.00,SE,139,0.0,1.0,67,-99.99,,,-99.99,40.000000,,2013-06-24 02:21:00,
2013-06-23 19:42:00,59.0,48.0,-100.00,SW,231,1.0,2.0,67,-99.99,,,-99.99,60.000000,,2013-06-24 02:42:00,
2013-06-23 19:53:00,60.0,48.0,-100.00,WSW,246,0.0,1.0,66,-99.99,,,-99.99,60.000000,,2013-06-24 02:53:00,
2013-06-23 20:01:00,58.0,48.0,-100.00,North,356,0.0,1.0,70,-99.99,,,-99.99,20.000000,,2013-06-24 03:01:00,
2013-06-23 20:11:00,58.0,48.0,-100.00,North,356,0.0,1.0,70,-99.99,,,-99.99,20.000000,,2013-06-24 03:11:00,
2013-06-23 20:22:00,57.0,48.0,-100.00,NNE,12,0.0,1.0,72,-99.99,,,-99.99,10.000000,,2013-06-24 03:22:00,
2013-06-23 20:33:00,57.0,48.0,-100.00,NNE,12,0.0,1.0,72,-99.99,,,-99.99,10.000000,,2013-06-24 03:33:00,
2013-06-23 20:43:00,56.0,48.0,-100.00,NNE,28,0.0,1.0,74,-99.99,,,-99.99,10.000000,,2013-06-24 03:43:00,
2013-06-23 21:01:00,55.0,48.0,-100.00,NNW,345,0.0,1.0,76,-99.99,,,-99.99,0.000000,,2013-06-24 04:01:00,
2013-06-23 21:11:00,54.0,46.0,-100.00,NNE,15,0.0,1.0,74,-99.99,,,-99.99,0.000000,,2013-06-24 04:11:00,
2013-06-23 21:33:00,53.0,43.0,-100.00,NE,38,1.0,1.0,68,-99.99,,,-99.99,0.000000,,2013-06-24 04:33:00,
2013-06-23 21:43:00,52.0,40.0,-100.00,NNE,30,1.0,1.0,63,-99.99,,,-99.99,0.000000,,2013-06-24 04:43:00,
2013-06-23 21:50:00,50.0,34.0,-100.00,NNE,21,0.0,1.0,55,-99.99,,,-99.99,0.000000,,2013-06-24 04:50:00,
2013-06-23 21:52:00,52.0,38.0,-100.00,NNE,28,0.0,1.0,60,-99.99,,,-99.99,0.000000,,2013-06-24 04:52:00,
2013-06-23 22:02:00,51.0,37.0,-100.00,NNE,18,0.0,1.0,57,-99.99,,,-99.99,0.000000,,2013-06-24 05:02:00,
2013-06-23 22:12:00,51.0,36.0,-100.00,North,10,1.0,1.0,56,-99.99,,,-99.99,0.000000,,2013-06-24 05:12:00,
2013-06-23 23:12:00,49.0,34.0,-100.00,NE,36,1.0,2.0,55,-99.99,,,-99.99,0.000000,,2013-06-24 06:12:00,
2013-06-23 23:22:00,49.0,34.0,-100.00,NNE,30,0.0,1.0,55,-99.99,,,-99.99,0.000000,,2013-06-24 06:22:00,
2013-06-23 23:34:00,49.0,34.0,-100.00,NNE,22,1.0,1.0,55,-99.99,,,-99.99,0.000000,,2013-06-24 06:34:00,
2013-06-23 23:43:00,49.0,34.0,-100.00,NNE,20,0.0,1.0,56,-99.99,,,-99.99,0.000000,,2013-06-24 06:43:00,
2013-06-23 23:52:00,49.0,34.0,-100.00,NE,35,0.0,1.0,57,-99.99,,,-99.99,0.000000,,2013-06-24 06:52:00,